sensor_id;sensor_type;location;lat;lon;timestamp;P1;durP1;ratioP1;P2;durP2;ratioP2
8909;SDS011;4490;49.072;8.804;2023-03-01T00:01:16;16.67;;;11.97;;
8909;SDS011;4490;49.072;8.804;2023-03-01T00:03:43;18.33;;;11.57;;
8909;SDS011;4490;49.072;8.804;2023-03-01T00:06:09;18.50;;;12.10;;
8909;SDS011;4490;49.072;8.804;2023-03-01T00:08:35;16.93;;;12.27;;
8909;SDS011;4490;49.072;8.804;2023-03-01T00:11:06;17.37;;;12.50;;
8909;SDS011;4490;49.072;8.804;2023-03-01T00:13:41;18.73;;;11.50;;
8909;SDS011;4490;49.072;8.804;2023-03-01T00:16:13;18.80;;;11.97;;
8909;SDS011;4490;49.072;8.804;2023-03-01T00:18:44;18.43;;;11.73;;
8909;SDS011;4490;49.072;8.804;2023-03-01T00:21:10;18.33;;;13.00;;
8909;SDS011;4490;49.072;8.804;2023-03-01T00:23:36;17.60;;;12.33;;
8909;SDS011;4490;49.072;8.804;2023-03-01T00:26:04;17.77;;;12.37;;
8909;SDS011;4490;49.072;8.804;2023-03-01T00:28:32;17.73;;;12.73;;
8909;SDS011;4490;49.072;8.804;2023-03-01T00:31:02;17.77;;;12.90;;
8909;SDS011;4490;49.072;8.804;2023-03-01T00:33:32;23.90;;;13.60;;
8909;SDS011;4490;49.072;8.804;2023-03-01T00:35:58;17.73;;;12.30;;
8909;SDS011;4490;49.072;8.804;2023-03-01T00:38:24;20.57;;;13.47;;
8909;SDS011;4490;49.072;8.804;2023-03-01T00:40:50;20.97;;;12.93;;
8909;SDS011;4490;49.072;8.804;2023-03-01T00:43:15;20.93;;;12.97;;
8909;SDS011;4490;49.072;8.804;2023-03-01T00:45:41;19.27;;;13.40;;
8909;SDS011;4490;49.072;8.804;2023-03-01T00:48:06;19.40;;;12.47;;
8909;SDS011;4490;49.072;8.804;2023-03-01T00:50:32;19.57;;;12.73;;
8909;SDS011;4490;49.072;8.804;2023-03-01T00:52:58;20.77;;;12.47;;
8909;SDS011;4490;49.072;8.804;2023-03-01T00:55:23;17.80;;;10.87;;
8909;SDS011;4490;49.072;8.804;2023-03-01T00:57:49;18.87;;;12.83;;
8909;SDS011;4490;49.072;8.804;2023-03-01T01:00:15;21.37;;;12.83;;
8909;SDS011;4490;49.072;8.804;2023-03-01T01:02:42;18.57;;;13.00;;
8909;SDS011;4490;49.072;8.804;2023-03-01T01:05:08;18.83;;;13.70;;
8909;SDS011;4490;49.072;8.804;2023-03-01T01:07:33;19.03;;;13.20;;
8909;SDS011;4490;49.072;8.804;2023-03-01T01:09:59;15.57;;;11.80;;
8909;SDS011;4490;49.072;8.804;2023-03-01T01:12:25;19.53;;;13.50;;
8909;SDS011;4490;49.072;8.804;2023-03-01T01:14:50;19.70;;;12.80;;
8909;SDS011;4490;49.072;8.804;2023-03-01T01:17:16;17.20;;;13.33;;
8909;SDS011;4490;49.072;8.804;2023-03-01T01:19:41;20.67;;;13.67;;
8909;SDS011;4490;49.072;8.804;2023-03-01T01:22:07;17.77;;;12.87;;
8909;SDS011;4490;49.072;8.804;2023-03-01T01:24:33;18.93;;;12.57;;
8909;SDS011;4490;49.072;8.804;2023-03-01T01:26:58;18.47;;;12.77;;
8909;SDS011;4490;49.072;8.804;2023-03-01T01:29:24;18.90;;;12.70;;
8909;SDS011;4490;49.072;8.804;2023-03-01T01:31:49;20.50;;;13.70;;
8909;SDS011;4490;49.072;8.804;2023-03-01T01:34:16;21.67;;;13.37;;
8909;SDS011;4490;49.072;8.804;2023-03-01T01:36:47;21.07;;;14.53;;
8909;SDS011;4490;49.072;8.804;2023-03-01T01:39:14;18.83;;;13.20;;
8909;SDS011;4490;49.072;8.804;2023-03-01T01:41:40;20.40;;;13.57;;
8909;SDS011;4490;49.072;8.804;2023-03-01T01:44:15;18.63;;;13.67;;
8909;SDS011;4490;49.072;8.804;2023-03-01T01:46:47;21.43;;;14.13;;
8909;SDS011;4490;49.072;8.804;2023-03-01T01:51:49;22.27;;;14.50;;
8909;SDS011;4490;49.072;8.804;2023-03-01T01:54:24;24.23;;;14.33;;
8909;SDS011;4490;49.072;8.804;2023-03-01T01:56:55;21.03;;;13.83;;
8909;SDS011;4490;49.072;8.804;2023-03-01T01:59:24;22.80;;;14.27;;
8909;SDS011;4490;49.072;8.804;2023-03-01T02:01:52;21.97;;;14.07;;
8909;SDS011;4490;49.072;8.804;2023-03-01T02:04:18;20.73;;;13.93;;
8909;SDS011;4490;49.072;8.804;2023-03-01T02:06:47;20.03;;;14.60;;
8909;SDS011;4490;49.072;8.804;2023-03-01T02:09:19;23.50;;;15.03;;
8909;SDS011;4490;49.072;8.804;2023-03-01T02:11:46;21.97;;;14.63;;
8909;SDS011;4490;49.072;8.804;2023-03-01T02:14:14;22.83;;;14.50;;
8909;SDS011;4490;49.072;8.804;2023-03-01T02:16:40;21.83;;;15.00;;
8909;SDS011;4490;49.072;8.804;2023-03-01T02:19:07;22.73;;;15.87;;
8909;SDS011;4490;49.072;8.804;2023-03-01T02:27:05;22.23;;;15.00;;
8909;SDS011;4490;49.072;8.804;2023-03-01T02:29:31;23.50;;;15.40;;
8909;SDS011;4490;49.072;8.804;2023-03-01T02:31:57;23.40;;;15.67;;
8909;SDS011;4490;49.072;8.804;2023-03-01T02:34:26;21.57;;;14.97;;
8909;SDS011;4490;49.072;8.804;2023-03-01T02:37:01;22.37;;;15.57;;
8909;SDS011;4490;49.072;8.804;2023-03-01T02:39:36;21.67;;;15.27;;
8909;SDS011;4490;49.072;8.804;2023-03-01T02:42:07;23.47;;;15.10;;
8909;SDS011;4490;49.072;8.804;2023-03-01T02:44:40;23.57;;;15.93;;
8909;SDS011;4490;49.072;8.804;2023-03-01T02:47:06;25.00;;;15.57;;
8909;SDS011;4490;49.072;8.804;2023-03-01T02:49:34;23.60;;;15.57;;
8909;SDS011;4490;49.072;8.804;2023-03-01T02:52:09;22.93;;;15.77;;
8909;SDS011;4490;49.072;8.804;2023-03-01T02:55:01;24.40;;;15.57;;
8909;SDS011;4490;49.072;8.804;2023-03-01T02:57:31;23.97;;;16.47;;
8909;SDS011;4490;49.072;8.804;2023-03-01T02:59:59;23.17;;;15.20;;
8909;SDS011;4490;49.072;8.804;2023-03-01T03:02:32;24.57;;;16.00;;
8909;SDS011;4490;49.072;8.804;2023-03-01T03:05:06;20.73;;;14.63;;
8909;SDS011;4490;49.072;8.804;2023-03-01T03:07:38;22.77;;;15.43;;
8909;SDS011;4490;49.072;8.804;2023-03-01T03:10:07;24.87;;;16.40;;
8909;SDS011;4490;49.072;8.804;2023-03-01T03:12:37;23.53;;;15.27;;
8909;SDS011;4490;49.072;8.804;2023-03-01T03:15:04;26.13;;;16.50;;
8909;SDS011;4490;49.072;8.804;2023-03-01T03:17:37;22.97;;;15.20;;
8909;SDS011;4490;49.072;8.804;2023-03-01T03:20:04;26.90;;;17.00;;
8909;SDS011;4490;49.072;8.804;2023-03-01T03:22:35;24.97;;;16.40;;
8909;SDS011;4490;49.072;8.804;2023-03-01T03:25:01;22.97;;;15.93;;
8909;SDS011;4490;49.072;8.804;2023-03-01T03:27:27;26.20;;;15.47;;
8909;SDS011;4490;49.072;8.804;2023-03-01T03:29:53;26.03;;;16.10;;
8909;SDS011;4490;49.072;8.804;2023-03-01T03:32:19;26.30;;;15.77;;
8909;SDS011;4490;49.072;8.804;2023-03-01T03:34:44;23.47;;;15.17;;
8909;SDS011;4490;49.072;8.804;2023-03-01T03:37:10;21.07;;;14.93;;
8909;SDS011;4490;49.072;8.804;2023-03-01T03:39:55;24.97;;;16.37;;
8909;SDS011;4490;49.072;8.804;2023-03-01T03:42:21;24.53;;;15.63;;
8909;SDS011;4490;49.072;8.804;2023-03-01T03:44:47;24.33;;;16.63;;
8909;SDS011;4490;49.072;8.804;2023-03-01T03:47:13;23.13;;;15.57;;
8909;SDS011;4490;49.072;8.804;2023-03-01T03:49:39;26.73;;;15.90;;
8909;SDS011;4490;49.072;8.804;2023-03-01T03:52:04;25.17;;;16.93;;
8909;SDS011;4490;49.072;8.804;2023-03-01T03:54:38;22.63;;;16.30;;
8909;SDS011;4490;49.072;8.804;2023-03-01T03:57:06;27.47;;;16.30;;
8909;SDS011;4490;49.072;8.804;2023-03-01T03:59:32;25.60;;;16.70;;
8909;SDS011;4490;49.072;8.804;2023-03-01T04:01:58;22.47;;;15.97;;
8909;SDS011;4490;49.072;8.804;2023-03-01T04:04:23;25.27;;;16.37;;
8909;SDS011;4490;49.072;8.804;2023-03-01T04:06:49;23.77;;;16.90;;
8909;SDS011;4490;49.072;8.804;2023-03-01T04:09:14;25.03;;;16.20;;
8909;SDS011;4490;49.072;8.804;2023-03-01T04:11:40;26.87;;;16.43;;
8909;SDS011;4490;49.072;8.804;2023-03-01T04:14:06;26.23;;;16.53;;
8909;SDS011;4490;49.072;8.804;2023-03-01T04:16:31;25.47;;;16.90;;
8909;SDS011;4490;49.072;8.804;2023-03-01T04:18:57;24.03;;;15.50;;
8909;SDS011;4490;49.072;8.804;2023-03-01T04:21:24;28.37;;;16.20;;
8909;SDS011;4490;49.072;8.804;2023-03-01T04:23:50;24.40;;;16.73;;
8909;SDS011;4490;49.072;8.804;2023-03-01T04:26:17;25.70;;;16.53;;
8909;SDS011;4490;49.072;8.804;2023-03-01T04:28:44;24.80;;;17.43;;
8909;SDS011;4490;49.072;8.804;2023-03-01T04:31:14;26.20;;;16.27;;
8909;SDS011;4490;49.072;8.804;2023-03-01T04:33:44;27.33;;;16.63;;
8909;SDS011;4490;49.072;8.804;2023-03-01T04:36:12;25.50;;;15.93;;
8909;SDS011;4490;49.072;8.804;2023-03-01T04:38:39;27.30;;;16.20;;
8909;SDS011;4490;49.072;8.804;2023-03-01T04:41:06;25.07;;;17.37;;
8909;SDS011;4490;49.072;8.804;2023-03-01T04:43:33;25.10;;;16.83;;
8909;SDS011;4490;49.072;8.804;2023-03-01T04:46:00;24.73;;;15.67;;
8909;SDS011;4490;49.072;8.804;2023-03-01T04:48:31;24.57;;;15.93;;
8909;SDS011;4490;49.072;8.804;2023-03-01T04:50:58;26.20;;;16.17;;
8909;SDS011;4490;49.072;8.804;2023-03-01T04:53:24;25.17;;;15.97;;
8909;SDS011;4490;49.072;8.804;2023-03-01T04:55:50;25.77;;;15.67;;
8909;SDS011;4490;49.072;8.804;2023-03-01T04:58:15;22.20;;;13.40;;
8909;SDS011;4490;49.072;8.804;2023-03-01T05:00:41;28.97;;;17.07;;
8909;SDS011;4490;49.072;8.804;2023-03-01T05:03:07;26.87;;;16.00;;
8909;SDS011;4490;49.072;8.804;2023-03-01T05:05:34;27.10;;;16.77;;
8909;SDS011;4490;49.072;8.804;2023-03-01T05:08:03;26.27;;;17.13;;
8909;SDS011;4490;49.072;8.804;2023-03-01T05:10:33;23.77;;;16.10;;
8909;SDS011;4490;49.072;8.804;2023-03-01T05:13:00;26.73;;;16.73;;
8909;SDS011;4490;49.072;8.804;2023-03-01T05:15:28;28.30;;;17.77;;
8909;SDS011;4490;49.072;8.804;2023-03-01T05:17:56;27.07;;;17.77;;
8909;SDS011;4490;49.072;8.804;2023-03-01T05:20:24;26.27;;;16.73;;
8909;SDS011;4490;49.072;8.804;2023-03-01T05:22:55;28.27;;;17.97;;
8909;SDS011;4490;49.072;8.804;2023-03-01T05:25:23;27.23;;;17.77;;
8909;SDS011;4490;49.072;8.804;2023-03-01T05:27:49;27.63;;;17.40;;
8909;SDS011;4490;49.072;8.804;2023-03-01T05:30:16;27.40;;;17.77;;
8909;SDS011;4490;49.072;8.804;2023-03-01T05:32:43;26.73;;;17.80;;
8909;SDS011;4490;49.072;8.804;2023-03-01T05:35:10;26.67;;;17.33;;
8909;SDS011;4490;49.072;8.804;2023-03-01T05:37:40;26.80;;;16.93;;
8909;SDS011;4490;49.072;8.804;2023-03-01T05:40:08;26.30;;;18.20;;
8909;SDS011;4490;49.072;8.804;2023-03-01T05:42:41;25.67;;;16.70;;
8909;SDS011;4490;49.072;8.804;2023-03-01T05:45:08;27.70;;;18.30;;
8909;SDS011;4490;49.072;8.804;2023-03-01T05:47:34;26.93;;;17.17;;
8909;SDS011;4490;49.072;8.804;2023-03-01T05:50:00;25.13;;;16.70;;
8909;SDS011;4490;49.072;8.804;2023-03-01T05:52:26;25.50;;;17.13;;
8909;SDS011;4490;49.072;8.804;2023-03-01T05:54:52;26.90;;;17.50;;
8909;SDS011;4490;49.072;8.804;2023-03-01T05:57:17;29.67;;;17.77;;
8909;SDS011;4490;49.072;8.804;2023-03-01T05:59:43;28.63;;;18.07;;
8909;SDS011;4490;49.072;8.804;2023-03-01T06:02:08;25.97;;;17.83;;
8909;SDS011;4490;49.072;8.804;2023-03-01T06:04:34;28.13;;;18.07;;
8909;SDS011;4490;49.072;8.804;2023-03-01T06:07:00;26.77;;;18.50;;
8909;SDS011;4490;49.072;8.804;2023-03-01T06:09:25;24.77;;;15.90;;
8909;SDS011;4490;49.072;8.804;2023-03-01T06:11:51;26.87;;;17.40;;
8909;SDS011;4490;49.072;8.804;2023-03-01T06:14:16;27.23;;;18.13;;
8909;SDS011;4490;49.072;8.804;2023-03-01T06:16:42;30.20;;;18.00;;
8909;SDS011;4490;49.072;8.804;2023-03-01T06:19:08;28.87;;;18.07;;
8909;SDS011;4490;49.072;8.804;2023-03-01T06:21:33;28.70;;;17.43;;
8909;SDS011;4490;49.072;8.804;2023-03-01T06:23:59;30.47;;;17.40;;
8909;SDS011;4490;49.072;8.804;2023-03-01T06:26:24;29.00;;;17.63;;
8909;SDS011;4490;49.072;8.804;2023-03-01T06:28:50;26.80;;;17.33;;
8909;SDS011;4490;49.072;8.804;2023-03-01T06:31:15;27.93;;;17.10;;
8909;SDS011;4490;49.072;8.804;2023-03-01T06:33:41;28.33;;;18.43;;
8909;SDS011;4490;49.072;8.804;2023-03-01T06:36:07;28.93;;;18.87;;
8909;SDS011;4490;49.072;8.804;2023-03-01T06:38:33;28.97;;;17.67;;
8909;SDS011;4490;49.072;8.804;2023-03-01T06:40:59;27.97;;;18.23;;
8909;SDS011;4490;49.072;8.804;2023-03-01T06:43:24;28.97;;;17.93;;
8909;SDS011;4490;49.072;8.804;2023-03-01T06:45:50;28.70;;;18.77;;
8909;SDS011;4490;49.072;8.804;2023-03-01T06:48:16;26.80;;;17.47;;
8909;SDS011;4490;49.072;8.804;2023-03-01T06:50:42;26.97;;;17.43;;
8909;SDS011;4490;49.072;8.804;2023-03-01T06:53:07;31.90;;;17.63;;
8909;SDS011;4490;49.072;8.804;2023-03-01T06:55:33;33.30;;;18.70;;
8909;SDS011;4490;49.072;8.804;2023-03-01T06:57:59;28.83;;;17.63;;
8909;SDS011;4490;49.072;8.804;2023-03-01T07:00:26;28.03;;;17.77;;
8909;SDS011;4490;49.072;8.804;2023-03-01T07:02:53;29.27;;;18.63;;
8909;SDS011;4490;49.072;8.804;2023-03-01T07:05:19;27.77;;;18.20;;
8909;SDS011;4490;49.072;8.804;2023-03-01T07:07:44;30.30;;;18.40;;
8909;SDS011;4490;49.072;8.804;2023-03-01T07:10:10;29.87;;;18.50;;
8909;SDS011;4490;49.072;8.804;2023-03-01T07:12:36;26.53;;;17.63;;
8909;SDS011;4490;49.072;8.804;2023-03-01T07:15:02;27.87;;;18.50;;
8909;SDS011;4490;49.072;8.804;2023-03-01T07:17:29;28.93;;;18.27;;
8909;SDS011;4490;49.072;8.804;2023-03-01T07:19:55;30.33;;;18.20;;
8909;SDS011;4490;49.072;8.804;2023-03-01T07:22:21;28.23;;;18.07;;
8909;SDS011;4490;49.072;8.804;2023-03-01T07:24:47;29.60;;;18.40;;
8909;SDS011;4490;49.072;8.804;2023-03-01T07:27:12;30.70;;;18.50;;
8909;SDS011;4490;49.072;8.804;2023-03-01T07:29:38;26.67;;;18.37;;
8909;SDS011;4490;49.072;8.804;2023-03-01T07:32:04;28.40;;;18.67;;
8909;SDS011;4490;49.072;8.804;2023-03-01T07:34:30;28.00;;;17.43;;
8909;SDS011;4490;49.072;8.804;2023-03-01T07:36:56;24.07;;;17.03;;
8909;SDS011;4490;49.072;8.804;2023-03-01T07:39:21;25.73;;;17.27;;
8909;SDS011;4490;49.072;8.804;2023-03-01T07:41:50;25.03;;;17.77;;
8909;SDS011;4490;49.072;8.804;2023-03-01T07:44:16;25.70;;;17.10;;
8909;SDS011;4490;49.072;8.804;2023-03-01T07:46:42;26.47;;;17.57;;
8909;SDS011;4490;49.072;8.804;2023-03-01T07:49:08;20.77;;;16.07;;
8909;SDS011;4490;49.072;8.804;2023-03-01T07:51:33;24.23;;;16.93;;
8909;SDS011;4490;49.072;8.804;2023-03-01T07:53:59;21.97;;;16.80;;
8909;SDS011;4490;49.072;8.804;2023-03-01T07:56:25;23.03;;;15.83;;
8909;SDS011;4490;49.072;8.804;2023-03-01T07:58:50;22.33;;;16.43;;
8909;SDS011;4490;49.072;8.804;2023-03-01T08:01:17;21.33;;;16.07;;
8909;SDS011;4490;49.072;8.804;2023-03-01T08:03:43;22.37;;;16.50;;
8909;SDS011;4490;49.072;8.804;2023-03-01T08:06:10;22.10;;;16.83;;
8909;SDS011;4490;49.072;8.804;2023-03-01T08:08:37;21.03;;;16.90;;
8909;SDS011;4490;49.072;8.804;2023-03-01T08:11:03;21.97;;;15.53;;
8909;SDS011;4490;49.072;8.804;2023-03-01T08:13:30;21.70;;;16.03;;
8909;SDS011;4490;49.072;8.804;2023-03-01T08:16:03;25.57;;;17.53;;
8909;SDS011;4490;49.072;8.804;2023-03-01T08:18:39;20.17;;;16.37;;
8909;SDS011;4490;49.072;8.804;2023-03-01T08:21:06;20.93;;;16.00;;
8909;SDS011;4490;49.072;8.804;2023-03-01T08:23:35;22.73;;;16.37;;
8909;SDS011;4490;49.072;8.804;2023-03-01T08:28:43;20.90;;;15.73;;
8909;SDS011;4490;49.072;8.804;2023-03-01T08:31:26;20.60;;;16.37;;
8909;SDS011;4490;49.072;8.804;2023-03-01T08:33:54;22.77;;;17.13;;
8909;SDS011;4490;49.072;8.804;2023-03-01T08:36:23;19.73;;;16.20;;
8909;SDS011;4490;49.072;8.804;2023-03-01T08:38:50;21.10;;;16.53;;
8909;SDS011;4490;49.072;8.804;2023-03-01T08:41:16;22.20;;;16.60;;
8909;SDS011;4490;49.072;8.804;2023-03-01T08:43:42;21.07;;;16.80;;
8909;SDS011;4490;49.072;8.804;2023-03-01T08:46:08;21.00;;;16.03;;
8909;SDS011;4490;49.072;8.804;2023-03-01T08:48:34;22.00;;;16.37;;
8909;SDS011;4490;49.072;8.804;2023-03-01T08:51:10;19.60;;;16.67;;
8909;SDS011;4490;49.072;8.804;2023-03-01T08:53:37;21.03;;;16.37;;
8909;SDS011;4490;49.072;8.804;2023-03-01T08:56:04;23.33;;;17.23;;
8909;SDS011;4490;49.072;8.804;2023-03-01T08:58:29;21.23;;;17.20;;
8909;SDS011;4490;49.072;8.804;2023-03-01T09:00:55;23.37;;;18.23;;
8909;SDS011;4490;49.072;8.804;2023-03-01T09:03:24;22.20;;;17.47;;
8909;SDS011;4490;49.072;8.804;2023-03-01T09:05:50;23.13;;;18.00;;
8909;SDS011;4490;49.072;8.804;2023-03-01T09:08:17;21.40;;;17.33;;
8909;SDS011;4490;49.072;8.804;2023-03-01T09:10:42;23.97;;;18.17;;
8909;SDS011;4490;49.072;8.804;2023-03-01T09:13:08;25.60;;;17.63;;
8909;SDS011;4490;49.072;8.804;2023-03-01T09:15:35;24.83;;;18.10;;
8909;SDS011;4490;49.072;8.804;2023-03-01T09:18:02;25.53;;;18.50;;
8909;SDS011;4490;49.072;8.804;2023-03-01T09:20:27;26.20;;;17.80;;
8909;SDS011;4490;49.072;8.804;2023-03-01T09:22:55;26.17;;;17.33;;
8909;SDS011;4490;49.072;8.804;2023-03-01T09:25:21;22.97;;;16.30;;
8909;SDS011;4490;49.072;8.804;2023-03-01T09:27:47;24.93;;;17.80;;
8909;SDS011;4490;49.072;8.804;2023-03-01T09:30:16;22.83;;;17.57;;
8909;SDS011;4490;49.072;8.804;2023-03-01T09:32:41;27.93;;;16.77;;
8909;SDS011;4490;49.072;8.804;2023-03-01T09:35:07;28.43;;;18.23;;
8909;SDS011;4490;49.072;8.804;2023-03-01T09:37:34;26.03;;;18.00;;
8909;SDS011;4490;49.072;8.804;2023-03-01T09:40:00;24.43;;;17.87;;
8909;SDS011;4490;49.072;8.804;2023-03-01T09:42:28;24.00;;;18.07;;
8909;SDS011;4490;49.072;8.804;2023-03-01T09:45:39;26.23;;;18.07;;
8909;SDS011;4490;49.072;8.804;2023-03-01T09:47:50;24.37;;;18.13;;
8909;SDS011;4490;49.072;8.804;2023-03-01T09:50:18;28.20;;;18.27;;
8909;SDS011;4490;49.072;8.804;2023-03-01T09:55:37;24.53;;;18.07;;
8909;SDS011;4490;49.072;8.804;2023-03-01T09:58:11;23.30;;;17.70;;
8909;SDS011;4490;49.072;8.804;2023-03-01T10:00:52;25.23;;;17.87;;
8909;SDS011;4490;49.072;8.804;2023-03-01T10:06:04;26.23;;;19.07;;
8909;SDS011;4490;49.072;8.804;2023-03-01T10:08:43;26.80;;;19.33;;
8909;SDS011;4490;49.072;8.804;2023-03-01T10:11:25;27.07;;;19.03;;
8909;SDS011;4490;49.072;8.804;2023-03-01T10:13:59;25.73;;;18.20;;
8909;SDS011;4490;49.072;8.804;2023-03-01T10:16:40;28.23;;;18.33;;
8909;SDS011;4490;49.072;8.804;2023-03-01T10:19:29;24.97;;;18.67;;
8909;SDS011;4490;49.072;8.804;2023-03-01T10:22:03;24.77;;;18.57;;
8909;SDS011;4490;49.072;8.804;2023-03-01T10:24:46;25.73;;;18.77;;
8909;SDS011;4490;49.072;8.804;2023-03-01T10:27:17;27.53;;;18.03;;
8909;SDS011;4490;49.072;8.804;2023-03-01T10:30:13;26.73;;;18.97;;
8909;SDS011;4490;49.072;8.804;2023-03-01T10:32:45;25.07;;;18.37;;
8909;SDS011;4490;49.072;8.804;2023-03-01T10:37:57;26.00;;;18.80;;
8909;SDS011;4490;49.072;8.804;2023-03-01T10:40:34;24.50;;;17.97;;
8909;SDS011;4490;49.072;8.804;2023-03-01T10:43:05;26.60;;;19.03;;
8909;SDS011;4490;49.072;8.804;2023-03-01T10:45:37;26.73;;;19.30;;
8909;SDS011;4490;49.072;8.804;2023-03-01T10:48:26;26.87;;;17.93;;
8909;SDS011;4490;49.072;8.804;2023-03-01T10:53:32;25.20;;;18.10;;
8909;SDS011;4490;49.072;8.804;2023-03-01T10:56:04;24.80;;;18.80;;
8909;SDS011;4490;49.072;8.804;2023-03-01T10:58:33;24.20;;;17.77;;
8909;SDS011;4490;49.072;8.804;2023-03-01T11:01:01;24.93;;;18.97;;
8909;SDS011;4490;49.072;8.804;2023-03-01T11:03:42;22.27;;;18.00;;
8909;SDS011;4490;49.072;8.804;2023-03-01T11:16:57;22.53;;;17.63;;
8909;SDS011;4490;49.072;8.804;2023-03-01T11:19:25;23.67;;;18.43;;
8909;SDS011;4490;49.072;8.804;2023-03-01T11:21:53;23.90;;;17.60;;
8909;SDS011;4490;49.072;8.804;2023-03-01T11:27:17;21.20;;;17.40;;
8909;SDS011;4490;49.072;8.804;2023-03-01T11:30:05;22.27;;;17.97;;
8909;SDS011;4490;49.072;8.804;2023-03-01T11:32:45;22.17;;;18.00;;
8909;SDS011;4490;49.072;8.804;2023-03-01T11:35:19;22.90;;;17.90;;
8909;SDS011;4490;49.072;8.804;2023-03-01T11:37:55;22.03;;;16.70;;
8909;SDS011;4490;49.072;8.804;2023-03-01T11:40:25;26.33;;;18.00;;
8909;SDS011;4490;49.072;8.804;2023-03-01T11:45:35;22.23;;;17.53;;
8909;SDS011;4490;49.072;8.804;2023-03-01T11:50:52;19.57;;;17.47;;
8909;SDS011;4490;49.072;8.804;2023-03-01T11:53:36;20.53;;;17.73;;
8909;SDS011;4490;49.072;8.804;2023-03-01T11:56:12;24.30;;;18.47;;
8909;SDS011;4490;49.072;8.804;2023-03-01T12:06:50;22.30;;;17.60;;
8909;SDS011;4490;49.072;8.804;2023-03-01T12:14:08;20.30;;;17.73;;
8909;SDS011;4490;49.072;8.804;2023-03-01T12:22:29;21.77;;;18.10;;
8909;SDS011;4490;49.072;8.804;2023-03-01T12:24:59;20.10;;;17.77;;
8909;SDS011;4490;49.072;8.804;2023-03-01T12:27:50;19.77;;;17.67;;
8909;SDS011;4490;49.072;8.804;2023-03-01T12:38:46;22.37;;;19.60;;
8909;SDS011;4490;49.072;8.804;2023-03-01T12:43:44;23.47;;;19.50;;
8909;SDS011;4490;49.072;8.804;2023-03-01T12:49:13;21.37;;;18.60;;
8909;SDS011;4490;49.072;8.804;2023-03-01T12:51:51;23.57;;;18.53;;
8909;SDS011;4490;49.072;8.804;2023-03-01T12:54:43;20.37;;;17.53;;
8909;SDS011;4490;49.072;8.804;2023-03-01T12:57:33;21.87;;;18.50;;
8909;SDS011;4490;49.072;8.804;2023-03-01T13:00:17;21.03;;;18.10;;
8909;SDS011;4490;49.072;8.804;2023-03-01T13:03:10;19.87;;;17.77;;
8909;SDS011;4490;49.072;8.804;2023-03-01T13:08:38;19.43;;;17.37;;
8909;SDS011;4490;49.072;8.804;2023-03-01T13:11:21;20.10;;;17.83;;
8909;SDS011;4490;49.072;8.804;2023-03-01T13:13:48;20.53;;;17.60;;
8909;SDS011;4490;49.072;8.804;2023-03-01T13:19:36;19.67;;;17.10;;
8909;SDS011;4490;49.072;8.804;2023-03-01T13:21:43;21.90;;;18.33;;
8909;SDS011;4490;49.072;8.804;2023-03-01T13:29:46;20.60;;;17.97;;
8909;SDS011;4490;49.072;8.804;2023-03-01T13:32:29;20.87;;;18.60;;
8909;SDS011;4490;49.072;8.804;2023-03-01T13:35:02;19.90;;;17.70;;
8909;SDS011;4490;49.072;8.804;2023-03-01T13:37:48;20.90;;;17.80;;
8909;SDS011;4490;49.072;8.804;2023-03-01T13:42:50;18.93;;;16.93;;
8909;SDS011;4490;49.072;8.804;2023-03-01T13:48:02;19.57;;;15.07;;
8909;SDS011;4490;49.072;8.804;2023-03-01T13:50:33;21.03;;;17.17;;
8909;SDS011;4490;49.072;8.804;2023-03-01T13:53:09;19.40;;;17.30;;
8909;SDS011;4490;49.072;8.804;2023-03-01T13:55:41;21.00;;;17.47;;
8909;SDS011;4490;49.072;8.804;2023-03-01T13:58:27;19.60;;;17.50;;
8909;SDS011;4490;49.072;8.804;2023-03-01T14:01:02;18.40;;;15.87;;
8909;SDS011;4490;49.072;8.804;2023-03-01T14:03:33;19.20;;;16.27;;
8909;SDS011;4490;49.072;8.804;2023-03-01T14:06:08;20.27;;;16.97;;
8909;SDS011;4490;49.072;8.804;2023-03-01T14:08:37;20.13;;;16.83;;
8909;SDS011;4490;49.072;8.804;2023-03-01T14:17:10;19.97;;;17.00;;
8909;SDS011;4490;49.072;8.804;2023-03-01T14:19:31;19.23;;;17.07;;
8909;SDS011;4490;49.072;8.804;2023-03-01T14:22:03;18.57;;;16.67;;
8909;SDS011;4490;49.072;8.804;2023-03-01T14:24:30;19.57;;;17.57;;
8909;SDS011;4490;49.072;8.804;2023-03-01T14:27:00;18.37;;;16.27;;
8909;SDS011;4490;49.072;8.804;2023-03-01T14:29:34;23.73;;;17.53;;
8909;SDS011;4490;49.072;8.804;2023-03-01T14:32:21;18.83;;;16.93;;
8909;SDS011;4490;49.072;8.804;2023-03-01T14:34:50;18.23;;;16.20;;
8909;SDS011;4490;49.072;8.804;2023-03-01T14:37:30;18.83;;;16.83;;
8909;SDS011;4490;49.072;8.804;2023-03-01T14:39:59;20.87;;;17.13;;
8909;SDS011;4490;49.072;8.804;2023-03-01T14:42:30;19.17;;;16.20;;
8909;SDS011;4490;49.072;8.804;2023-03-01T14:44:59;19.17;;;15.20;;
8909;SDS011;4490;49.072;8.804;2023-03-01T14:47:28;19.53;;;16.67;;
8909;SDS011;4490;49.072;8.804;2023-03-01T14:50:07;20.87;;;16.90;;
8909;SDS011;4490;49.072;8.804;2023-03-01T14:52:47;20.43;;;17.00;;
8909;SDS011;4490;49.072;8.804;2023-03-01T14:55:16;19.87;;;16.73;;
8909;SDS011;4490;49.072;8.804;2023-03-01T14:57:44;18.57;;;16.60;;
8909;SDS011;4490;49.072;8.804;2023-03-01T15:00:18;21.57;;;17.00;;
8909;SDS011;4490;49.072;8.804;2023-03-01T15:02:46;19.93;;;17.40;;
8909;SDS011;4490;49.072;8.804;2023-03-01T15:05:15;18.97;;;16.87;;
8909;SDS011;4490;49.072;8.804;2023-03-01T15:07:44;21.07;;;16.80;;
8909;SDS011;4490;49.072;8.804;2023-03-01T15:10:24;19.60;;;17.17;;
8909;SDS011;4490;49.072;8.804;2023-03-01T15:12:54;18.40;;;16.10;;
8909;SDS011;4490;49.072;8.804;2023-03-01T15:15:32;21.43;;;16.83;;
8909;SDS011;4490;49.072;8.804;2023-03-01T15:18:04;20.47;;;16.63;;
8909;SDS011;4490;49.072;8.804;2023-03-01T15:20:38;19.63;;;16.87;;
8909;SDS011;4490;49.072;8.804;2023-03-01T15:23:04;18.30;;;16.10;;
8909;SDS011;4490;49.072;8.804;2023-03-01T15:25:30;21.23;;;17.43;;
8909;SDS011;4490;49.072;8.804;2023-03-01T15:27:57;21.33;;;16.70;;
8909;SDS011;4490;49.072;8.804;2023-03-01T15:30:25;18.90;;;16.90;;
8909;SDS011;4490;49.072;8.804;2023-03-01T15:35:48;20.70;;;17.67;;
8909;SDS011;4490;49.072;8.804;2023-03-01T15:41:01;20.93;;;17.40;;
8909;SDS011;4490;49.072;8.804;2023-03-01T15:43:38;19.10;;;16.97;;
8909;SDS011;4490;49.072;8.804;2023-03-01T15:46:14;22.97;;;17.63;;
8909;SDS011;4490;49.072;8.804;2023-03-01T15:48:57;21.43;;;17.60;;
8909;SDS011;4490;49.072;8.804;2023-03-01T15:51:34;21.37;;;17.27;;
8909;SDS011;4490;49.072;8.804;2023-03-01T15:54:03;22.10;;;16.77;;
8909;SDS011;4490;49.072;8.804;2023-03-01T15:56:39;22.10;;;17.33;;
8909;SDS011;4490;49.072;8.804;2023-03-01T15:59:05;21.60;;;16.90;;
8909;SDS011;4490;49.072;8.804;2023-03-01T16:01:32;22.53;;;17.70;;
8909;SDS011;4490;49.072;8.804;2023-03-01T16:03:59;20.87;;;17.23;;
8909;SDS011;4490;49.072;8.804;2023-03-01T16:06:25;21.60;;;17.13;;
8909;SDS011;4490;49.072;8.804;2023-03-01T16:08:50;22.47;;;17.23;;
8909;SDS011;4490;49.072;8.804;2023-03-01T16:11:17;22.37;;;17.37;;
8909;SDS011;4490;49.072;8.804;2023-03-01T16:13:44;20.63;;;16.93;;
8909;SDS011;4490;49.072;8.804;2023-03-01T16:16:11;22.47;;;17.33;;
8909;SDS011;4490;49.072;8.804;2023-03-01T16:18:41;24.30;;;17.87;;
8909;SDS011;4490;49.072;8.804;2023-03-01T16:21:21;24.93;;;17.33;;
8909;SDS011;4490;49.072;8.804;2023-03-01T16:23:50;22.33;;;17.23;;
8909;SDS011;4490;49.072;8.804;2023-03-01T16:26:17;20.97;;;15.90;;
8909;SDS011;4490;49.072;8.804;2023-03-01T16:28:44;24.27;;;18.13;;
8909;SDS011;4490;49.072;8.804;2023-03-01T16:31:10;20.83;;;16.80;;
8909;SDS011;4490;49.072;8.804;2023-03-01T16:33:36;21.00;;;17.43;;
8909;SDS011;4490;49.072;8.804;2023-03-01T16:36:09;23.33;;;17.40;;
8909;SDS011;4490;49.072;8.804;2023-03-01T16:38:36;21.73;;;17.23;;
8909;SDS011;4490;49.072;8.804;2023-03-01T16:41:02;23.23;;;17.87;;
8909;SDS011;4490;49.072;8.804;2023-03-01T16:43:28;23.20;;;17.17;;